Time;durP1;ratioP1;P1;durP2;ratioP2;P2;SDS_P1;SDS_P2;PMS_P1;PMS_P2;Temp;Humidity;BMP_temperature;BMP_pressure;BME280_temperature;BME280_humidity;BME280_pressure;Samples;Min_cycle;Max_cycle;Signal;HPM_P1;HPM_P2
2024/01/02 00:05:56;;;;;;;73.40;33.10;;;;;;;6.77;100.00;99404.30;681977;1261;139607;-81
2024/01/02 00:21:00;;;;;;;140.60;48.50;;;;;;;6.81;100.00;99402.18;681834;1262;139526;-82
2024/01/02 00:36:05;;;;;;;116.60;37.50;;;;;;;6.85;100.00;99395.41;681820;1264;139064;-82
2024/01/02 00:51:09;;;;;;;113.50;38.80;;;;;;;6.95;100.00;99399.48;681739;1267;139572;-82
2024/01/02 01:06:12;;;;;;;200.90;63.40;;;;;;;6.93;100.00;99400.01;682078;1264;138856;-82
2024/01/02 01:21:16;;;;;;;137.50;48.10;;;;;;;6.89;100.00;99405.90;681855;1263;142202;-82
2024/01/02 01:36:22;;;;;;;160.70;54.90;;;;;;;6.97;100.00;99402.55;681917;1265;138737;-82
2024/01/02 01:51:27;;;;;;;255.00;75.30;;;;;;;6.92;100.00;99393.09;681861;1262;139905;-82
2024/01/02 02:06:30;;;;;;;117.30;46.10;;;;;;;6.89;100.00;99384.86;681966;1264;139406;-82
2024/01/02 02:21:35;;;;;;;155.10;58.40;;;;;;;6.89;100.00;99385.44;681674;1265;139511;-82
2024/01/02 02:36:39;;;;;;;132.70;50.30;;;;;;;6.94;100.00;99385.66;681992;1265;139900;-81
2024/01/02 02:51:42;;;;;;;151.00;53.30;;;;;;;6.94;100.00;99385.30;681885;1264;139826;-82
2024/01/02 03:06:46;;;;;;;136.40;54.30;;;;;;;6.88;100.00;99377.46;681948;1264;138672;-82
2024/01/02 03:21:49;;;;;;;88.00;35.10;;;;;;;6.83;100.00;99377.56;681915;1263;139863;-82
2024/01/02 03:36:54;;;;;;;78.40;32.50;;;;;;;6.84;100.00;99376.58;682066;1265;138596;-81
2024/01/02 03:51:58;;;;;;;101.60;40.40;;;;;;;6.96;100.00;99382.17;681812;1265;139752;-82
2024/01/02 04:07:02;;;;;;;92.10;34.90;;;;;;;6.97;100.00;99378.55;681832;1260;139234;-82
2024/01/02 04:22:05;;;;;;;89.40;31.80;;;;;;;6.93;100.00;99379.71;681831;1272;138847;-82
2024/01/02 04:37:10;;;;;;;103.70;36.50;;;;;;;6.96;100.00;99380.92;681986;1263;138805;-82
2024/01/02 04:52:13;;;;;;;84.10;29.20;;;;;;;6.94;100.00;99377.45;681779;1265;139063;-82
2024/01/02 05:07:17;;;;;;;114.50;37.20;;;;;;;6.94;100.00;99376.77;681955;1266;138695;-82
2024/01/02 05:22:21;;;;;;;99.00;32.90;;;;;;;6.91;100.00;99377.41;681949;1265;138964;-82
2024/01/02 05:37:25;;;;;;;103.00;29.30;;;;;;;6.98;100.00;99377.29;682083;1265;138718;-81
2024/01/02 05:52:29;;;;;;;228.60;73.00;;;;;;;7.01;100.00;99385.52;681828;1265;138959;-80
2024/01/02 06:07:32;;;;;;;118.80;40.60;;;;;;;7.02;100.00;99378.68;681868;1265;139289;-81
2024/01/02 06:22:37;;;;;;;88.90;32.80;;;;;;;7.06;100.00;99380.07;681890;1266;141021;-82
2024/01/02 06:37:43;;;;;;;118.60;38.30;;;;;;;7.10;100.00;99395.04;681874;1267;139847;-81
2024/01/02 06:52:47;;;;;;;93.70;33.00;;;;;;;7.11;100.00;99391.30;681836;1266;139036;-81
2024/01/02 07:07:51;;;;;;;102.50;37.10;;;;;;;7.10;100.00;99391.88;681752;1266;138685;-81
2024/01/02 07:22:54;;;;;;;78.60;27.80;;;;;;;7.11;100.00;99381.20;682050;1264;139676;-81
2024/01/02 07:37:59;;;;;;;66.70;27.10;;;;;;;7.15;100.00;99377.91;681687;1266;138971;-81
2024/01/02 07:53:02;;;;;;;93.70;33.10;;;;;;;7.26;100.00;99383.88;681872;1264;139468;-83
2024/01/02 08:08:06;;;;;;;61.00;25.60;;;;;;;7.28;100.00;99385.14;681779;1264;139890;-81
2024/01/02 08:23:11;;;;;;;111.20;50.00;;;;;;;7.35;100.00;99379.30;681973;1264;139135;-82
2024/01/02 08:38:17;;;;;;;144.70;65.30;;;;;;;7.49;100.00;99382.35;681782;1264;139038;-82
2024/01/02 08:53:22;;;;;;;138.30;53.50;;;;;;;7.58;100.00;99386.48;682000;1276;138975;-81
2024/01/02 09:08:26;;;;;;;79.00;33.10;;;;;;;7.62;100.00;99398.17;681840;1262;139479;-82
2024/01/02 09:23:34;;;;;;;76.90;31.60;;;;;;;7.73;100.00;99401.99;681846;1260;151076;-82
2024/01/02 09:38:38;;;;;;;150.40;64.00;;;;;;;7.84;100.00;99410.22;681843;1260;138872;-82
2024/01/02 09:53:42;;;;;;;94.70;49.80;;;;;;;7.90;100.00;99407.45;682001;1260;141955;-82
2024/01/02 10:09:04;;;;;;;68.40;32.80;;;;;;;7.98;100.00;99402.58;681989;1263;139016;-81
2024/01/02 10:24:27;;;;;;;58.60;28.70;;;;;;;8.08;100.00;99382.98;681999;1261;139073;-82
2024/01/02 10:39:45;;;;;;;66.10;26.70;;;;;;;8.42;100.00;99356.75;681868;1260;139409;-82
2024/01/02 10:55:18;;;;;;;62.00;27.10;;;;;;;8.71;100.00;99338.48;682006;1273;139127;-82
2024/01/02 11:10:25;;;;;;;75.70;33.70;;;;;;;8.74;100.00;99332.95;681865;1262;139759;-82
2024/01/02 11:25:34;;;;;;;216.80;88.20;;;;;;;8.82;100.00;99316.02;681920;1264;138685;-82
2024/01/02 11:41:13;;;;;;;76.20;30.70;;;;;;;8.99;100.00;99312.95;681933;1261;139928;-81
2024/01/02 11:56:18;;;;;;;90.40;34.00;;;;;;;8.88;100.00;99302.88;681919;1265;140368;-80
2024/01/02 12:11:28;;;;;;;82.30;30.60;;;;;;;8.91;100.00;99287.73;682012;1265;139381;-80
2024/01/02 12:26:36;;;;;;;59.00;25.10;;;;;;;8.82;100.00;99287.39;681869;1265;140138;-81
2024/01/02 12:41:45;;;;;;;77.70;39.70;;;;;;;8.60;100.00;99275.92;681854;1264;139256;-81
2024/01/02 12:56:54;;;;;;;80.60;37.60;;;;;;;8.57;100.00;99258.30;681916;1262;139325;-81
2024/01/02 13:12:00;;;;;;;56.10;28.30;;;;;;;8.55;100.00;99248.70;682153;1262;139596;-81
2024/01/02 13:27:04;;;;;;;66.40;32.00;;;;;;;8.70;100.00;99246.36;682043;1264;139929;-81
2024/01/02 13:42:10;;;;;;;236.10;82.70;;;;;;;8.63;100.00;99238.63;681978;1264;139049;-81
2024/01/02 13:57:23;;;;;;;198.90;68.70;;;;;;;8.37;100.00;99237.86;681925;1262;139784;-81
2024/01/02 14:12:38;;;;;;;256.60;83.10;;;;;;;8.34;100.00;99224.50;682016;1265;138920;-81
2024/01/02 14:27:55;;;;;;;273.00;82.80;;;;;;;8.18;100.00;99209.80;681914;1264;138882;-82
2024/01/02 14:43:01;;;;;;;148.70;57.50;;;;;;;8.11;100.00;99208.08;682074;1262;139183;-81
2024/01/02 14:58:57;;;;;;;252.20;81.70;;;;;;;7.98;100.00;99190.27;681942;1265;139174;-81
2024/01/02 15:14:42;;;;;;;58.80;28.20;;;;;;;7.88;100.00;99181.34;682135;1262;140080;-81
2024/01/02 15:29:55;;;;;;;77.90;39.00;;;;;;;7.91;100.00;99177.27;682157;1264;138605;-81
2024/01/02 15:45:05;;;;;;;97.80;41.30;;;;;;;7.91;100.00;99159.63;681891;1264;139154;-81
2024/01/02 16:00:12;;;;;;;219.30;70.60;;;;;;;7.86;100.00;99153.67;682104;1265;139079;-82
2024/01/02 16:15:51;;;;;;;335.90;118.90;;;;;;;7.79;100.00;99138.60;682009;1264;138852;-81
2024/01/02 16:31:14;;;;;;;215.90;85.40;;;;;;;7.68;100.00;99129.75;682036;1263;139418;-81
2024/01/02 16:46:23;;;;;;;157.40;72.30;;;;;;;7.49;100.00;99123.02;681902;1265;140251;-81
2024/01/02 17:01:34;;;;;;;160.00;53.10;;;;;;;7.15;100.00;99120.42;681972;1276;139054;-81
2024/01/02 17:16:39;;;;;;;152.10;53.40;;;;;;;7.05;100.00;99092.77;681857;1265;139908;-82
2024/01/02 17:31:45;;;;;;;231.20;75.00;;;;;;;6.83;100.00;99050.30;681870;1277;139486;-81
2024/01/02 17:46:49;;;;;;;89.90;34.70;;;;;;;6.70;100.00;99023.50;681811;1264;139037;-82
2024/01/02 18:02:11;;;;;;;96.00;37.10;;;;;;;6.75;100.00;99020.77;681708;1265;139770;-82
2024/01/02 18:17:29;;;;;;;137.00;52.90;;;;;;;6.79;100.00;98998.39;681908;1262;138916;-82
2024/01/02 18:32:51;;;;;;;;;;;;;;;6.88;100.00;98991.83;681882;1264;140599;-82
2024/01/02 18:48:22;;;;;;;92.00;40.30;;;;;;;6.87;100.00;98980.09;681819;1265;125487;-82
2024/01/02 19:03:27;;;;;;;76.90;29.90;;;;;;;6.74;100.00;98971.30;681709;1265;138870;-82
2024/01/02 19:18:31;;;;;;;75.10;30.50;;;;;;;6.70;100.00;98951.40;681941;1265;138753;-82
2024/01/02 19:33:35;;;;;;;99.40;37.00;;;;;;;6.71;100.00;98929.07;681755;1265;140214;-82
2024/01/02 19:48:40;;;;;;;88.90;37.20;;;;;;;6.67;100.00;98905.27;681843;1265;138836;-81
2024/01/02 20:03:49;;;;;;;172.80;79.30;;;;;;;6.71;100.00;98883.67;681680;1262;139165;-82
2024/01/02 20:18:58;;;;;;;110.50;40.00;;;;;;;6.66;100.00;98861.98;681942;1265;139380;-82
2024/01/02 20:34:04;;;;;;;118.40;38.00;;;;;;;6.57;100.00;98846.30;681792;1264;140016;-81
2024/01/02 20:49:11;;;;;;;84.40;32.10;;;;;;;6.60;100.00;98833.13;681869;1264;138987;-81
2024/01/02 21:04:22;;;;;;;86.30;36.30;;;;;;;6.51;100.00;98818.86;681826;1265;139047;-80
2024/01/02 21:19:32;;;;;;;68.20;28.70;;;;;;;6.46;100.00;98802.48;681636;1265;166990;-80
2024/01/02 21:34:35;;;;;;;87.40;33.70;;;;;;;6.30;100.00;98774.33;681674;1265;138817;-80
2024/01/02 21:49:42;;;;;;;83.00;33.30;;;;;;;6.19;100.00;98740.46;681877;1265;139781;-81
2024/01/02 22:04:47;;;;;;;71.60;25.80;;;;;;;6.16;100.00;98715.20;681710;1266;139269;-80
2024/01/02 22:19:52;;;;;;;69.20;26.60;;;;;;;6.24;100.00;98697.29;681875;1265;142068;-80
2024/01/02 22:35:01;;;;;;;118.90;41.20;;;;;;;6.24;100.00;98668.64;681894;1266;138774;-81
2024/01/02 22:50:05;;;;;;;74.90;28.50;;;;;;;6.25;100.00;98643.70;681752;1265;139222;-81
2024/01/02 23:05:10;;;;;;;131.50;46.80;;;;;;;6.33;100.00;98624.36;682027;1266;140019;-81
2024/01/02 23:20:17;;;;;;;76.70;26.90;;;;;;;6.37;100.00;98607.96;681937;1262;139369;-82
2024/01/02 23:35:21;;;;;;;49.80;21.00;;;;;;;6.38;100.00;98595.21;681890;1260;139912;-81
2024/01/02 23:50:25;;;;;;;48.60;20.40;;;;;;;6.38;100.00;98568.99;681897;1265;139175;-82
